Time;durP1;ratioP1;P1;durP2;ratioP2;P2;SDS_P1;SDS_P2;PMS_P1;PMS_P2;Temp;Humidity;BMP_temperature;BMP_pressure;BME280_temperature;BME280_humidity;BME280_pressure;Samples;Min_cycle;Max_cycle;Signal;HPM_P1;HPM_P2
2022/04/24 00:00:26;;;;;;;3.75;0.90;;;14.20;96.70;;;;;;5084453;28;20040;-83
2022/04/24 00:02:57;;;;;;;3.55;0.82;;;14.30;96.70;;;;;;5076600;28;20041;-83
2022/04/24 00:05:25;;;;;;;3.80;0.93;;;14.30;96.70;;;;;;5079391;28;20045;-83
2022/04/24 00:07:52;;;;;;;3.78;0.93;;;14.30;96.70;;;;;;5072770;28;20044;-83
2022/04/24 00:10:24;;;;;;;2.95;0.70;;;14.40;96.70;;;;;;5075347;28;20048;-83
2022/04/24 00:12:52;;;;;;;3.25;1.05;;;14.40;96.70;;;;;;5086109;28;20144;-83
2022/04/24 00:15:20;;;;;;;2.53;0.80;;;14.40;96.70;;;;;;5079560;28;20574;-83
2022/04/24 00:17:49;;;;;;;2.58;0.55;;;14.40;96.70;;;;;;5078102;28;20130;-83
2022/04/24 00:20:17;;;;;;;3.17;0.77;;;14.40;96.70;;;;;;5083527;28;20056;-83
2022/04/24 00:22:48;;;;;;;3.13;0.80;;;14.40;96.70;;;;;;5084954;28;20497;-83
2022/04/24 00:25:16;;;;;;;4.35;0.50;;;14.40;96.70;;;;;;5078558;28;20114;-83
2022/04/24 00:27:45;;;;;;;3.40;0.80;;;14.40;96.70;;;;;;5082540;28;20455;-83
2022/04/24 00:30:13;;;;;;;4.57;0.68;;;14.30;96.70;;;;;;5080568;28;20040;-84
2022/04/24 00:32:41;;;;;;;2.47;0.63;;;14.30;96.70;;;;;;5081581;28;20549;-83
2022/04/24 00:35:12;;;;;;;3.83;0.80;;;14.30;96.70;;;;;;5079403;28;20111;-83
2022/04/24 00:37:40;;;;;;;2.90;0.70;;;14.30;96.70;;;;;;5083667;28;20051;-83
2022/04/24 00:40:09;;;;;;;5.15;0.75;;;14.30;96.70;;;;;;5081491;28;20046;-84
2022/04/24 00:42:37;;;;;;;4.72;0.80;;;14.30;96.70;;;;;;5085106;28;20516;-84
2022/04/24 00:45:06;;;;;;;2.17;0.57;;;14.30;96.70;;;;;;5078443;28;20516;-83
2022/04/24 00:47:44;;;;;;;2.33;0.70;;;14.20;96.70;;;;;;5072074;28;20513;-83
2022/04/24 00:50:13;;;;;;;3.05;0.73;;;14.20;96.70;;;;;;5081509;28;20048;-83
2022/04/24 00:52:41;;;;;;;3.95;0.90;;;14.30;96.70;;;;;;5078226;28;20048;-82
2022/04/24 00:55:09;;;;;;;4.50;1.08;;;14.30;96.70;;;;;;5070481;28;20082;-82
2022/04/24 00:57:37;;;;;;;3.00;0.95;;;14.30;96.70;;;;;;5061361;28;20040;-82
2022/04/24 01:00:07;;;;;;;4.78;1.23;;;14.30;96.70;;;;;;5081178;28;20161;-83
2022/04/24 01:02:38;;;;;;;2.55;0.63;;;14.10;96.70;;;;;;5075045;28;20543;-82
2022/04/24 01:05:08;;;;;;;7.25;1.60;;;13.90;96.70;;;;;;5070513;28;20040;-82
2022/04/24 01:07:37;;;;;;;3.45;0.65;;;13.90;96.70;;;;;;5081497;28;20051;-82
2022/04/24 01:10:06;;;;;;;3.25;0.85;;;13.60;96.70;;;;;;5070701;28;20048;-82
2022/04/24 01:12:34;;;;;;;7.63;1.23;;;13.40;96.70;;;;;;5078366;28;20791;-82
2022/04/24 01:15:02;;;;;;;5.18;0.80;;;13.20;96.70;;;;;;5080347;28;20386;-81
2022/04/24 01:17:30;;;;;;;3.40;0.70;;;13.10;96.70;;;;;;5074570;28;20051;-82
2022/04/24 01:19:58;;;;;;;3.72;0.65;;;13.00;96.70;;;;;;5080267;28;20052;-82
2022/04/24 01:22:27;;;;;;;3.78;0.40;;;13.00;96.70;;;;;;5076955;28;20043;-83
2022/04/24 01:24:55;;;;;;;3.28;0.50;;;12.80;96.70;;;;;;5076033;28;20068;-83
2022/04/24 01:27:24;;;;;;;3.85;0.65;;;12.80;96.70;;;;;;5083170;28;20387;-83
2022/04/24 01:29:52;;;;;;;3.50;0.68;;;12.70;96.70;;;;;;5072169;28;20165;-82
2022/04/24 01:32:20;;;;;;;4.85;0.70;;;12.80;96.70;;;;;;5070284;28;20039;-82
2022/04/24 01:34:48;;;;;;;4.90;1.15;;;13.00;96.70;;;;;;5080651;28;20044;-82
2022/04/24 01:37:15;;;;;;;5.40;0.70;;;12.80;96.70;;;;;;5077505;28;20036;-82
2022/04/24 01:39:45;;;;;;;3.60;0.60;;;12.90;96.70;;;;;;5081004;28;20040;-83
2022/04/24 01:42:13;;;;;;;2.58;0.50;;;13.20;96.70;;;;;;5080649;28;20148;-83
2022/04/24 01:44:41;;;;;;;2.78;0.35;;;13.40;96.70;;;;;;5071330;28;20053;-83
2022/04/24 01:47:10;;;;;;;5.25;0.82;;;13.50;96.70;;;;;;5080050;28;20430;-82
2022/04/24 01:49:37;;;;;;;3.15;0.60;;;13.50;96.70;;;;;;5060360;28;20101;-83
2022/04/24 01:52:06;;;;;;;4.95;0.90;;;13.30;96.70;;;;;;5078047;28;20089;-83
2022/04/24 01:54:35;;;;;;;4.75;0.68;;;13.50;96.70;;;;;;5073708;28;20496;-83
2022/04/24 01:57:05;;;;;;;3.03;0.52;;;13.60;96.70;;;;;;5073576;28;20048;-83
2022/04/24 01:59:37;;;;;;;4.80;0.70;;;13.70;96.70;;;;;;5065926;28;20052;-83
2022/04/24 02:02:05;;;;;;;2.00;0.43;;;13.50;96.70;;;;;;5068889;28;20117;-83
2022/04/24 02:04:33;;;;;;;5.07;0.70;;;13.50;96.70;;;;;;5076368;28;20051;-83
2022/04/24 02:07:01;;;;;;;2.83;0.50;;;13.50;96.70;;;;;;5080756;28;20052;-84
2022/04/24 02:09:29;;;;;;;3.70;0.70;;;13.40;96.70;;;;;;5077516;28;20041;-84
2022/04/24 02:12:14;;;;;;;7.25;0.60;;;13.40;96.70;;;;;;5077609;28;20071;-83
2022/04/24 02:14:42;;;;;;;2.95;0.50;;;13.50;96.70;;;;;;5080698;28;20028;-83
2022/04/24 02:17:10;;;;;;;4.15;0.50;;;13.50;96.70;;;;;;5079452;28;20174;-83
2022/04/24 02:19:38;;;;;;;4.80;0.60;;;13.40;96.70;;;;;;5083603;28;20055;-84
2022/04/24 02:22:06;;;;;;;3.05;0.60;;;13.40;96.70;;;;;;5077781;28;20051;-84
2022/04/24 02:24:34;;;;;;;1.48;0.50;;;13.30;96.70;;;;;;5062828;28;20068;-83
2022/04/24 02:27:03;;;;;;;2.55;0.70;;;13.30;96.70;;;;;;5082249;28;20535;-84
2022/04/24 02:29:33;;;;;;;4.70;0.73;;;13.30;96.70;;;;;;5077235;28;20044;-83
2022/04/24 02:32:01;;;;;;;3.80;0.70;;;13.20;96.70;;;;;;5077712;28;20093;-84
2022/04/24 02:34:29;;;;;;;3.63;0.77;;;13.20;96.70;;;;;;5083529;28;20044;-83
2022/04/24 02:36:56;;;;;;;4.72;0.80;;;13.20;96.70;;;;;;5076222;28;20024;-83
2022/04/24 02:39:24;;;;;;;4.57;0.88;;;13.10;96.70;;;;;;5083791;28;20044;-84
2022/04/24 02:41:52;;;;;;;3.13;0.60;;;13.00;96.70;;;;;;5075640;28;20048;-84
2022/04/24 02:44:22;;;;;;;2.90;0.60;;;13.10;96.70;;;;;;5052998;28;20395;-84
2022/04/24 02:46:51;;;;;;;7.10;1.45;;;13.10;96.70;;;;;;5061703;28;20140;-84
2022/04/24 02:49:19;;;;;;;3.55;0.52;;;13.10;96.70;;;;;;5055598;28;20044;-84
2022/04/24 02:51:47;;;;;;;2.17;0.30;;;13.20;96.70;;;;;;5084516;28;20521;-83
2022/04/24 02:54:15;;;;;;;2.95;0.60;;;13.20;96.70;;;;;;5083405;28;20485;-84
2022/04/24 02:56:43;;;;;;;3.30;0.70;;;13.20;96.70;;;;;;5081549;28;20041;-84
2022/04/24 02:59:11;;;;;;;3.38;0.70;;;13.10;96.70;;;;;;5086962;28;20787;-84
2022/04/24 03:01:39;;;;;;;5.28;0.43;;;13.10;96.70;;;;;;5081802;28;20051;-84
2022/04/24 03:04:09;;;;;;;3.38;0.70;;;13.10;96.70;;;;;;5066263;28;20090;-84
2022/04/24 03:06:37;;;;;;;5.07;0.50;;;13.10;96.70;;;;;;5080542;28;20045;-83
2022/04/24 03:09:05;;;;;;;1.80;0.40;;;13.10;96.70;;;;;;5085727;28;20059;-84
2022/04/24 03:11:33;;;;;;;4.10;0.55;;;13.10;96.70;;;;;;5080270;28;20485;-84
2022/04/24 03:14:01;;;;;;;2.20;0.47;;;13.20;96.70;;;;;;5080954;28;20048;-84
2022/04/24 03:16:29;;;;;;;3.55;0.88;;;13.20;96.70;;;;;;5084526;28;20458;-84
2022/04/24 03:18:57;;;;;;;2.38;0.70;;;13.20;96.70;;;;;;5085112;28;20065;-84
2022/04/24 03:21:26;;;;;;;3.53;0.70;;;13.20;96.70;;;;;;5083184;28;20115;-83
2022/04/24 03:23:54;;;;;;;2.60;0.70;;;13.20;96.70;;;;;;5082377;28;20048;-84
2022/04/24 03:26:32;;;;;;;3.75;0.45;;;13.20;96.70;;;;;;5065104;28;20050;-84
2022/04/24 03:29:00;;;;;;;3.22;0.82;;;13.30;96.70;;;;;;5062280;28;20044;-83
2022/04/24 03:31:28;;;;;;;3.33;0.70;;;13.10;96.70;;;;;;5079609;28;20040;-84
2022/04/24 03:33:56;;;;;;;3.40;0.63;;;13.00;96.70;;;;;;5080266;28;20058;-85
2022/04/24 03:36:26;;;;;;;2.35;0.73;;;13.00;96.70;;;;;;5070205;28;20032;-84
2022/04/24 03:38:54;;;;;;;3.17;0.80;;;13.00;96.70;;;;;;5085468;28;20105;-84
2022/04/24 03:41:22;;;;;;;4.03;0.60;;;13.10;96.70;;;;;;5077474;28;20157;-84
2022/04/24 03:43:51;;;;;;;1.70;0.55;;;13.10;96.70;;;;;;5085297;28;20043;-84
2022/04/24 03:46:19;;;;;;;3.35;1.00;;;13.00;96.70;;;;;;5081496;28;20036;-84
2022/04/24 03:48:48;;;;;;;2.03;0.45;;;12.90;96.70;;;;;;5062512;28;20497;-84
2022/04/24 03:51:16;;;;;;;3.30;0.60;;;12.90;96.70;;;;;;5083480;28;20039;-85
2022/04/24 03:53:46;;;;;;;3.45;0.43;;;13.00;96.70;;;;;;5087984;28;20040;-84
2022/04/24 03:56:14;;;;;;;2.45;0.40;;;13.00;96.70;;;;;;5067616;28;20063;-84
2022/04/24 03:58:43;;;;;;;2.20;0.57;;;12.90;96.70;;;;;;5084870;28;20401;-84
2022/04/24 04:01:12;;;;;;;2.63;0.57;;;13.00;96.70;;;;;;5067316;28;20517;-84
2022/04/24 04:03:41;;;;;;;3.30;0.60;;;12.90;96.70;;;;;;5065270;28;20500;-85
2022/04/24 04:06:09;;;;;;;2.85;0.60;;;12.90;96.70;;;;;;5086849;28;20070;-84
2022/04/24 04:08:37;;;;;;;4.65;0.68;;;12.90;96.70;;;;;;5067662;28;20106;-84
2022/04/24 04:11:07;;;;;;;2.05;0.40;;;12.80;96.70;;;;;;5054773;28;20123;-84
2022/04/24 04:13:36;;;;;;;3.10;0.63;;;12.80;96.70;;;;;;5090242;28;20148;-84
2022/04/24 04:16:05;;;;;;;1.10;0.40;;;12.80;96.70;;;;;;5083657;28;20713;-83
2022/04/24 04:18:33;;;;;;;1.15;0.40;;;12.80;96.70;;;;;;5084449;28;20044;-84
2022/04/24 04:21:01;;;;;;;2.33;0.40;;;12.80;96.70;;;;;;5082664;28;20056;-83
2022/04/24 04:23:30;;;;;;;4.03;0.85;;;12.80;96.70;;;;;;5082138;28;20494;-84
2022/04/24 04:25:58;;;;;;;1.13;0.30;;;12.80;96.70;;;;;;5085774;28;20139;-85
2022/04/24 04:28:28;;;;;;;2.38;0.43;;;12.70;96.70;;;;;;5067706;28;20053;-84
2022/04/24 04:30:57;;;;;;;3.20;0.68;;;12.70;96.70;;;;;;5084045;28;20079;-84
2022/04/24 04:33:25;;;;;;;1.80;0.40;;;12.80;96.70;;;;;;5097355;28;20110;-85
2022/04/24 04:35:53;;;;;;;4.50;0.73;;;12.70;96.70;;;;;;5070085;28;20151;-84
2022/04/24 04:38:22;;;;;;;1.73;0.40;;;12.60;96.70;;;;;;5086236;28;20042;-84
2022/04/24 04:40:50;;;;;;;3.15;0.65;;;12.50;96.70;;;;;;5087669;28;20048;-84
2022/04/24 04:43:18;;;;;;;3.13;0.47;;;12.60;96.70;;;;;;5084884;28;20521;-84
2022/04/24 04:45:49;;;;;;;2.97;0.50;;;12.60;96.70;;;;;;5081836;28;20123;-85
2022/04/24 04:48:17;;;;;;;1.67;0.45;;;12.60;96.70;;;;;;5079452;28;20040;-85
2022/04/24 04:50:45;;;;;;;2.60;0.50;;;12.70;96.70;;;;;;5081753;28;20055;-85
2022/04/24 04:53:13;;;;;;;3.80;0.88;;;12.70;96.70;;;;;;5068674;28;20134;-84
2022/04/24 04:55:42;;;;;;;1.20;0.47;;;12.70;96.70;;;;;;5081711;28;20585;-85
2022/04/24 04:58:10;;;;;;;1.90;0.40;;;12.70;96.70;;;;;;5086068;28;20480;-85
2022/04/24 05:00:38;;;;;;;5.00;0.77;;;12.80;96.70;;;;;;5084043;28;20052;-84
2022/04/24 05:03:09;;;;;;;2.10;0.70;;;12.80;96.70;;;;;;5084419;28;20044;-85
2022/04/24 05:05:37;;;;;;;4.47;0.82;;;12.90;96.70;;;;;;5066489;28;20044;-85
2022/04/24 05:08:05;;;;;;;4.10;0.40;;;12.90;96.70;;;;;;5090883;28;20048;-84
2022/04/24 05:10:34;;;;;;;1.65;0.40;;;12.90;96.70;;;;;;5075485;28;20501;-84
2022/04/24 05:13:02;;;;;;;3.58;0.70;;;12.90;96.70;;;;;;5077505;28;20075;-84
2022/04/24 05:15:30;;;;;;;2.28;0.50;;;12.90;96.70;;;;;;5061595;28;20089;-85
2022/04/24 05:17:58;;;;;;;2.10;0.52;;;13.00;96.70;;;;;;5081929;28;20048;-85
2022/04/24 05:20:28;;;;;;;2.03;0.57;;;13.00;96.70;;;;;;5082652;28;20139;-83
2022/04/24 05:23:04;;;;;;;5.30;0.70;;;13.00;96.70;;;;;;5085369;28;20574;-85
2022/04/24 05:25:32;;;;;;;3.28;0.60;;;13.00;96.70;;;;;;5087344;28;20149;-85
2022/04/24 05:28:01;;;;;;;2.20;0.60;;;13.10;96.70;;;;;;5078127;28;20048;-84
2022/04/24 05:30:30;;;;;;;1.35;0.55;;;13.10;96.70;;;;;;5072734;28;20045;-85
2022/04/24 05:33:00;;;;;;;2.53;0.47;;;13.10;96.70;;;;;;5082750;28;20044;-85
2022/04/24 05:35:30;;;;;;;2.65;0.57;;;13.20;96.70;;;;;;5076463;28;20214;-84
2022/04/24 05:37:58;;;;;;;4.25;0.70;;;13.30;96.70;;;;;;5085430;28;20044;-85
2022/04/24 05:40:26;;;;;;;3.78;0.77;;;13.40;96.70;;;;;;5076371;28;20051;-85
2022/04/24 05:42:55;;;;;;;3.40;0.55;;;13.40;96.70;;;;;;5077586;28;20113;-85
2022/04/24 05:45:24;;;;;;;3.92;1.08;;;13.40;96.70;;;;;;5069130;28;20112;-85
2022/04/24 05:47:54;;;;;;;3.10;0.65;;;13.40;96.70;;;;;;5077757;28;20047;-84
2022/04/24 05:50:24;;;;;;;6.80;0.73;;;13.40;96.70;;;;;;5090488;28;20067;-85
2022/04/24 05:52:55;;;;;;;3.22;0.73;;;13.30;96.70;;;;;;5071678;28;20048;-84
2022/04/24 05:55:24;;;;;;;2.03;0.55;;;13.30;96.70;;;;;;5082309;28;20070;-84
2022/04/24 05:58:11;;;;;;;5.60;1.10;;;13.20;96.70;;;;;;5081841;28;20609;-84
2022/04/24 06:00:39;;;;;;;2.45;0.90;;;13.20;96.70;;;;;;5076089;28;20097;-85
2022/04/24 06:03:08;;;;;;;2.00;0.63;;;13.20;96.70;;;;;;5086181;28;20152;-84
2022/04/24 06:05:36;;;;;;;3.33;0.70;;;13.30;96.70;;;;;;5083536;28;20059;-84
2022/04/24 06:08:07;;;;;;;2.95;1.00;;;13.50;96.70;;;;;;5076363;28;20513;-84
2022/04/24 06:10:36;;;;;;;4.82;0.75;;;13.50;96.70;;;;;;5086687;28;20044;-84
2022/04/24 06:13:04;;;;;;;5.28;1.13;;;13.60;96.70;;;;;;5085358;28;20031;-84
2022/04/24 06:15:32;;;;;;;3.25;0.68;;;13.80;96.70;;;;;;5063631;28;20586;-84
2022/04/24 06:18:00;;;;;;;4.63;0.90;;;13.90;96.70;;;;;;5088176;28;20080;-84
2022/04/24 06:20:29;;;;;;;2.25;0.63;;;14.00;96.70;;;;;;5065661;28;20052;-84
2022/04/24 06:23:16;;;;;;;3.35;0.95;;;14.10;96.70;;;;;;5083969;28;20036;-84
2022/04/24 06:25:44;;;;;;;7.35;1.33;;;14.20;96.70;;;;;;5076657;28;20040;-85
2022/04/24 06:28:13;;;;;;;6.28;1.67;;;14.20;96.70;;;;;;5080218;28;20040;-84
2022/04/24 06:30:42;;;;;;;7.95;1.55;;;14.30;96.70;;;;;;5072585;28;20566;-85
2022/04/24 06:33:11;;;;;;;6.85;1.40;;;14.30;96.70;;;;;;5071248;28;20109;-85
2022/04/24 06:35:40;;;;;;;8.93;1.70;;;14.40;96.70;;;;;;5070361;28;20049;-84
2022/04/24 06:38:09;;;;;;;9.38;1.52;;;14.50;96.70;;;;;;5073389;28;20044;-85
2022/04/24 06:40:39;;;;;;;11.35;1.88;;;14.60;96.70;;;;;;5086671;28;20142;-85
2022/04/24 06:43:08;;;;;;;7.50;1.38;;;14.60;96.70;;;;;;5083137;28;20563;-84
2022/04/24 06:45:38;;;;;;;9.60;2.45;;;14.70;96.70;;;;;;5089675;28;20665;-85
2022/04/24 06:48:11;;;;;;;6.30;1.20;;;14.60;96.70;;;;;;5074379;28;20044;-84
2022/04/24 06:50:41;;;;;;;12.90;1.88;;;14.60;96.70;;;;;;5081830;28;20090;-84
2022/04/24 06:53:11;;;;;;;11.07;1.98;;;14.60;96.70;;;;;;5089040;28;20066;-84
2022/04/24 06:55:42;;;;;;;11.50;2.08;;;14.60;96.70;;;;;;5086177;28;20083;-84
2022/04/24 06:58:12;;;;;;;11.90;1.98;;;14.60;96.70;;;;;;5094725;28;20055;-85
2022/04/24 07:00:43;;;;;;;9.60;1.83;;;14.60;96.70;;;;;;5079878;28;20044;-84
2022/04/24 07:03:32;;;;;;;10.43;2.22;;;14.50;96.70;;;;;;5081162;28;20127;-84
2022/04/24 07:06:03;;;;;;;9.68;1.50;;;14.60;96.70;;;;;;5079480;28;20036;-85
2022/04/24 07:08:32;;;;;;;8.52;1.83;;;14.60;96.70;;;;;;5068077;28;20052;-84
2022/04/24 07:11:02;;;;;;;10.77;2.25;;;14.70;96.70;;;;;;5089092;28;20127;-84
2022/04/24 07:13:31;;;;;;;10.90;1.88;;;14.70;96.70;;;;;;5077563;28;20713;-85
2022/04/24 07:15:59;;;;;;;11.88;1.80;;;14.70;96.70;;;;;;5085070;28;20095;-84
2022/04/24 07:18:28;;;;;;;8.00;1.48;;;14.80;96.70;;;;;;5080044;28;20056;-84
2022/04/24 07:20:58;;;;;;;10.23;1.88;;;14.90;96.70;;;;;;5087788;28;20043;-84
2022/04/24 07:23:26;;;;;;;10.13;2.28;;;14.90;96.70;;;;;;5069253;28;20048;-85
2022/04/24 07:25:55;;;;;;;9.55;2.22;;;15.00;96.70;;;;;;5084287;28;20592;-85
2022/04/24 07:28:26;;;;;;;7.25;1.38;;;15.00;96.70;;;;;;5062499;28;20048;-85
2022/04/24 07:30:54;;;;;;;11.77;1.70;;;15.10;96.70;;;;;;5084026;28;20040;-85
2022/04/24 07:33:22;;;;;;;13.20;2.88;;;15.20;96.70;;;;;;5067845;28;20090;-84
2022/04/24 07:35:53;;;;;;;13.02;2.95;;;15.20;96.70;;;;;;5067599;28;20139;-85
2022/04/24 07:38:21;;;;;;;8.82;2.25;;;15.40;96.70;;;;;;5087800;28;20052;-84
2022/04/24 07:40:49;;;;;;;10.45;1.67;;;15.50;96.70;;;;;;5085685;28;20521;-85
2022/04/24 07:43:17;;;;;;;12.50;1.85;;;15.70;96.70;;;;;;5080682;28;20052;-85
2022/04/24 07:45:47;;;;;;;10.38;2.15;;;15.90;96.70;;;;;;5080500;28;20075;-84
2022/04/24 07:48:16;;;;;;;10.60;2.05;;;16.00;96.70;;;;;;5081398;28;20055;-85
2022/04/24 07:50:46;;;;;;;10.20;1.45;;;16.10;96.70;;;;;;5083925;28;20044;-85
2022/04/24 07:53:15;;;;;;;10.55;1.85;;;16.20;96.70;;;;;;5082698;28;20508;-84
2022/04/24 07:55:44;;;;;;;12.38;2.33;;;16.30;96.70;;;;;;5087587;28;20037;-86
2022/04/24 07:58:13;;;;;;;9.48;1.70;;;16.30;96.70;;;;;;5084836;28;20048;-87
2022/04/24 08:00:42;;;;;;;11.88;2.08;;;16.20;96.70;;;;;;5071335;28;20516;-85
2022/04/24 08:03:13;;;;;;;12.43;2.05;;;16.30;96.70;;;;;;5071592;28;20250;-85
2022/04/24 08:05:43;;;;;;;8.73;2.03;;;16.30;96.70;;;;;;5091594;28;20045;-88
2022/04/24 08:08:14;;;;;;;9.73;1.77;;;16.30;96.70;;;;;;5080301;28;20036;-86
2022/04/24 08:10:45;;;;;;;11.18;1.90;;;16.40;96.70;;;;;;5087456;28;20044;-92
2022/04/24 08:13:12;;;;;;;8.93;2.45;;;16.40;96.70;;;;;;5087681;28;20047;-85
2022/04/24 08:15:42;;;;;;;9.30;1.95;;;16.30;96.70;;;;;;5074337;28;20044;-84
2022/04/24 08:18:12;;;;;;;6.88;1.45;;;16.30;96.70;;;;;;5062626;28;20040;-86
2022/04/24 08:20:41;;;;;;;9.80;2.97;;;16.20;96.70;;;;;;5089594;28;20472;-88
2022/04/24 08:23:12;;;;;;;13.35;2.45;;;16.10;96.70;;;;;;5081277;28;20147;-86
2022/04/24 08:25:40;;;;;;;13.38;3.15;;;16.00;96.70;;;;;;5088366;28;20475;-87
2022/04/24 08:28:10;;;;;;;11.00;3.15;;;15.90;96.70;;;;;;5083375;28;20040;-84
2022/04/24 08:30:40;;;;;;;11.30;2.42;;;15.80;96.70;;;;;;5082538;28;20500;-85
2022/04/24 08:33:15;;;;;;;9.32;2.05;;;15.70;96.70;;;;;;5078441;28;20051;-87
2022/04/24 08:35:45;;;;;;;9.95;2.03;;;15.70;96.70;;;;;;5086421;28;20039;-88
2022/04/24 08:38:15;;;;;;;10.48;1.98;;;15.60;96.70;;;;;;5086498;28;20462;-86
2022/04/24 08:40:43;;;;;;;9.95;2.72;;;15.60;96.70;;;;;;5080902;28;20050;-87
2022/04/24 08:43:14;;;;;;;15.55;3.20;;;15.50;96.70;;;;;;5082100;28;20076;-86
2022/04/24 08:45:42;;;;;;;11.10;2.40;;;15.50;96.70;;;;;;5087482;28;20043;-85
2022/04/24 08:48:14;;;;;;;13.32;2.67;;;15.50;96.70;;;;;;5080773;28;20040;-83
2022/04/24 08:50:43;;;;;;;8.23;2.20;;;15.50;96.70;;;;;;5077065;28;20035;-92
2022/04/24 08:53:12;;;;;;;9.15;2.47;;;15.50;96.70;;;;;;5079260;28;20120;-91
2022/04/24 08:55:47;;;;;;;11.10;2.60;;;15.50;96.70;;;;;;5077955;28;20069;-87
2022/04/24 08:58:15;;;;;;;11.45;2.05;;;15.60;96.70;;;;;;5078161;28;20044;-90
2022/04/24 09:00:44;;;;;;;10.77;2.10;;;15.70;96.70;;;;;;5081854;28;20201;-89
2022/04/24 09:03:14;;;;;;;7.85;1.63;;;15.70;96.70;;;;;;5087127;28;20047;-87
2022/04/24 09:05:44;;;;;;;10.07;2.03;;;15.70;96.70;;;;;;5067004;28;20049;-89
2022/04/24 09:08:13;;;;;;;12.48;2.20;;;15.60;96.70;;;;;;5094696;28;20040;-92
2022/04/24 09:11:01;;;;;;;13.20;2.60;;;15.50;96.70;;;;;;5084124;28;20139;-86
2022/04/24 09:14:14;;;;;;;11.32;2.10;;;15.30;96.70;;;;;;5072214;28;20142;-84
2022/04/24 09:16:32;;;;;;;5.82;1.65;;;15.10;96.70;;;;;;5080761;28;20067;-84
2022/04/24 09:19:02;;;;;;;10.95;1.25;;;14.50;96.70;;;;;;5069004;28;20048;-86
2022/04/24 09:21:31;;;;;;;8.98;2.55;;;13.90;96.70;;;;;;5080055;28;20043;-81
2022/04/24 09:24:00;;;;;;;6.82;1.60;;;13.40;96.70;;;;;;5079047;28;20151;-86
2022/04/24 09:26:28;;;;;;;7.32;1.63;;;13.20;96.70;;;;;;5081784;28;20039;-86
2022/04/24 09:29:13;;;;;;;6.57;1.35;;;13.20;96.70;;;;;;5086726;28;20044;-85
2022/04/24 09:31:45;;;;;;;6.65;1.50;;;13.00;96.70;;;;;;5065933;28;20501;-85
2022/04/24 09:34:18;;;;;;;6.05;2.20;;;13.00;96.70;;;;;;5074021;28;20050;-85
2022/04/24 09:37:00;;;;;;;5.10;2.03;;;12.90;96.70;;;;;;5080872;28;20564;-86
2022/04/24 09:39:29;;;;;;;2.22;1.27;;;13.10;96.70;;;;;;5084506;28;20051;-86
2022/04/24 09:42:08;;;;;;;3.55;1.20;;;13.10;96.70;;;;;;5086003;28;20131;-85
2022/04/24 09:44:39;;;;;;;3.97;1.33;;;13.20;96.70;;;;;;5085746;28;20502;-85
2022/04/24 09:47:27;;;;;;;2.85;0.90;;;13.10;96.70;;;;;;5081194;28;20052;-87
2022/04/24 09:50:00;;;;;;;2.13;0.93;;;13.20;96.70;;;;;;5085306;28;20040;-87
2022/04/24 09:52:32;;;;;;;2.33;0.68;;;13.30;96.70;;;;;;5066493;28;20115;-86
2022/04/24 09:55:02;;;;;;;2.85;0.40;;;13.30;96.70;;;;;;5086339;28;20044;-86
2022/04/24 09:57:31;;;;;;;1.80;0.43;;;13.50;96.70;;;;;;5087685;28;20070;-86
2022/04/24 09:59:59;;;;;;;5.40;2.33;;;13.60;96.70;;;;;;5080791;28;20047;-85
2022/04/24 10:02:34;;;;;;;3.80;1.35;;;13.70;96.70;;;;;;5087493;28;20074;-85
2022/04/24 10:05:06;;;;;;;3.65;1.38;;;13.90;96.70;;;;;;5069874;28;20562;-85
2022/04/24 10:07:36;;;;;;;3.90;1.38;;;14.00;96.70;;;;;;5085751;28;20048;-86
2022/04/24 10:10:07;;;;;;;1.35;0.68;;;14.10;96.70;;;;;;5082074;28;20137;-86
2022/04/24 10:12:35;;;;;;;3.47;1.33;;;14.10;96.70;;;;;;5066136;28;20102;-86
2022/04/24 10:15:06;;;;;;;3.80;1.65;;;14.20;96.70;;;;;;5095068;28;20064;-85
2022/04/24 10:17:51;;;;;;;4.57;2.85;;;14.30;96.70;;;;;;5069466;28;20052;-86
2022/04/24 10:20:36;;;;;;;2.88;1.65;;;14.50;96.70;;;;;;5086767;28;20047;-86
2022/04/24 10:23:05;;;;;;;3.50;1.63;;;14.60;96.70;;;;;;5071539;28;20104;-88
2022/04/24 10:25:37;;;;;;;3.83;3.08;;;14.70;96.70;;;;;;5066969;28;20064;-88
2022/04/24 10:28:11;;;;;;;7.65;1.80;;;15.00;96.70;;;;;;5066964;28;20040;-88
2022/04/24 10:30:40;;;;;;;3.13;0.70;;;15.20;96.70;;;;;;5066409;28;20048;-88
2022/04/24 10:33:18;;;;;;;4.75;1.08;;;15.20;96.70;;;;;;5078828;28;20040;-88
2022/04/24 10:35:49;;;;;;;3.83;1.10;;;15.40;96.70;;;;;;5083781;28;20040;-87
2022/04/24 10:38:19;;;;;;;2.47;1.10;;;15.40;96.70;;;;;;5080647;28;20047;-88
2022/04/24 10:40:59;;;;;;;1.95;0.75;;;15.40;96.70;;;;;;5085755;28;20077;-88
2022/04/24 10:43:38;;;;;;;2.78;0.80;;;15.50;96.70;;;;;;5082025;28;20056;-89
2022/04/24 10:46:20;;;;;;;2.42;0.90;;;15.60;96.70;;;;;;5086730;28;20863;-88
2022/04/24 10:48:48;;;;;;;4.15;1.00;;;15.70;96.70;;;;;;5078846;28;20048;-88
2022/04/24 10:51:28;;;;;;;3.42;1.13;;;15.70;96.70;;;;;;5070857;28;20063;-88
2022/04/24 10:53:58;;;;;;;3.80;1.10;;;15.90;96.70;;;;;;5082862;28;20504;-89
2022/04/24 10:56:27;;;;;;;2.53;1.05;;;15.90;96.70;;;;;;5085849;28;20060;-89
2022/04/24 10:59:07;;;;;;;2.30;0.70;;;16.10;96.70;;;;;;5085955;28;20036;-88
2022/04/24 11:01:38;;;;;;;4.70;0.88;;;16.10;96.70;;;;;;5086280;28;21443;-89
2022/04/24 11:04:08;;;;;;;1.38;0.40;;;16.20;96.70;;;;;;5082125;28;20563;-89
2022/04/24 11:06:38;;;;;;;1.75;0.60;;;16.30;96.70;;;;;;5069351;28;20044;-89
2022/04/24 11:09:07;;;;;;;2.78;1.65;;;16.50;96.70;;;;;;5076060;28;20136;-88
2022/04/24 11:11:45;;;;;;;5.30;1.80;;;16.80;96.70;;;;;;5087093;28;20040;-89
2022/04/24 11:14:18;;;;;;;2.80;1.30;;;16.80;96.70;;;;;;5086338;28;20044;-89
2022/04/24 11:16:49;;;;;;;2.08;1.10;;;16.80;96.70;;;;;;5072525;28;20068;-88
2022/04/24 11:19:25;;;;;;;3.22;1.33;;;17.00;96.70;;;;;;5086184;28;20139;-88
2022/04/24 11:21:58;;;;;;;;;;;17.10;96.70;;;;;;5089191;28;20059;-87
2022/04/24 11:24:29;;;;;;;6.15;3.65;;;17.10;96.70;;;;;;5071434;28;19963;-88
2022/04/24 11:26:57;;;;;;;5.38;2.78;;;17.10;96.70;;;;;;5072546;28;20040;-89
2022/04/24 11:29:25;;;;;;;3.50;1.38;;;17.20;96.70;;;;;;5090993;28;20059;-88
2022/04/24 11:31:55;;;;;;;3.63;1.40;;;17.30;96.70;;;;;;5066359;28;20040;-87
2022/04/24 11:34:25;;;;;;;2.90;1.35;;;17.40;96.70;;;;;;5089084;28;20400;-88
2022/04/24 11:36:58;;;;;;;3.30;1.20;;;17.40;96.70;;;;;;5089453;28;20040;-87
2022/04/24 11:39:29;;;;;;;3.90;1.23;;;17.40;96.70;;;;;;5088760;28;20623;-89
2022/04/24 11:41:58;;;;;;;2.20;1.30;;;17.30;96.70;;;;;;5092395;28;20063;-88
2022/04/24 11:50:15;;;;;;;2.75;0.82;;;16.90;96.70;;;;;;5089975;28;20035;-87
2022/04/24 11:53:05;;;;;;;1.67;0.70;;;16.70;96.70;;;;;;5082848;28;20044;-88
2022/04/24 11:58:26;;;;;;;3.53;1.00;;;16.30;96.70;;;;;;5085164;28;20468;-88
2022/04/24 12:00:54;;;;;;;3.30;1.08;;;16.20;96.70;;;;;;5074100;28;20051;-88
2022/04/24 12:03:23;;;;;;;3.50;0.75;;;16.10;96.70;;;;;;5083088;28;20048;-88
2022/04/24 12:05:58;;;;;;;3.90;1.17;;;16.10;96.70;;;;;;5088627;28;20087;-88
2022/04/24 12:08:52;;;;;;;2.33;1.00;;;16.10;96.70;;;;;;5088499;28;20523;-87
2022/04/24 12:11:25;;;;;;;3.63;0.90;;;16.10;96.70;;;;;;5083783;28;20091;-86
2022/04/24 12:14:06;;;;;;;3.50;0.82;;;16.10;96.70;;;;;;5088806;28;20374;-88
2022/04/24 12:16:35;;;;;;;4.82;1.00;;;16.00;96.70;;;;;;5071786;28;20063;-88
2022/04/24 12:19:06;;;;;;;2.15;0.90;;;15.80;96.70;;;;;;5085360;28;20125;-89
2022/04/24 12:21:45;;;;;;;3.95;1.02;;;15.70;96.70;;;;;;5089465;28;20050;-90
2022/04/24 12:24:15;;;;;;;3.53;0.93;;;15.60;96.70;;;;;;5082255;28;20044;-89
2022/04/24 12:26:47;;;;;;;3.90;0.93;;;15.60;96.70;;;;;;5070132;28;20070;-85
2022/04/24 12:29:17;;;;;;;3.03;1.10;;;15.60;96.70;;;;;;5095064;28;20048;-86
2022/04/24 12:31:49;;;;;;;2.15;0.98;;;15.50;96.70;;;;;;5069845;28;20424;-86
2022/04/24 12:34:21;;;;;;;3.97;1.05;;;15.50;96.70;;;;;;5087941;28;20045;-86
2022/04/24 12:36:50;;;;;;;4.20;1.38;;;15.40;96.70;;;;;;5084316;28;20075;-85
2022/04/24 12:39:25;;;;;;;3.38;1.00;;;15.40;96.70;;;;;;5081851;28;20048;-85
2022/04/24 12:41:54;;;;;;;2.80;0.70;;;15.20;96.70;;;;;;5079065;28;20066;-86
2022/04/24 12:44:23;;;;;;;2.30;0.60;;;15.00;96.70;;;;;;5064785;28;20141;-85
2022/04/24 12:47:02;;;;;;;2.13;0.73;;;14.80;96.70;;;;;;5085657;28;20536;-87
2022/04/24 12:49:31;;;;;;;4.32;0.95;;;14.80;96.70;;;;;;5071280;28;20051;-85
2022/04/24 12:52:00;;;;;;;5.13;1.05;;;14.70;96.70;;;;;;5070375;28;20044;-86
2022/04/24 12:54:30;;;;;;;2.72;0.80;;;14.70;96.70;;;;;;5079529;28;20055;-87
2022/04/24 12:56:58;;;;;;;3.15;0.57;;;14.60;96.70;;;;;;5083862;28;20047;-88
2022/04/24 12:59:26;;;;;;;2.70;1.08;;;14.60;96.70;;;;;;5079962;28;20060;-81
2022/04/24 13:01:55;;;;;;;3.50;0.80;;;14.60;96.70;;;;;;5074161;28;20161;-82
2022/04/24 13:04:24;;;;;;;4.88;2.45;;;14.70;96.70;;;;;;5078009;28;20094;-82
2022/04/24 13:06:52;;;;;;;5.65;2.55;;;14.70;96.70;;;;;;5074126;28;20055;-81
2022/04/24 13:09:27;;;;;;;4.72;1.17;;;15.00;96.70;;;;;;5077621;28;20040;-82